sensor_id;sensor_type;location;lat;lon;timestamp;temperature;humidity
16128;DHT22;8168;49.036;7.690;2023-04-24T00:01:03;12.40;99.90
16128;DHT22;8168;49.036;7.690;2023-04-24T00:03:34;12.40;99.90
16128;DHT22;8168;49.036;7.690;2023-04-24T00:06:05;12.40;99.90
16128;DHT22;8168;49.036;7.690;2023-04-24T00:08:38;12.40;99.90
16128;DHT22;8168;49.036;7.690;2023-04-24T00:11:09;12.40;99.90
16128;DHT22;8168;49.036;7.690;2023-04-24T00:13:39;12.40;99.90
16128;DHT22;8168;49.036;7.690;2023-04-24T00:16:10;12.40;99.90
16128;DHT22;8168;49.036;7.690;2023-04-24T00:18:41;12.40;99.90
16128;DHT22;8168;49.036;7.690;2023-04-24T00:21:11;12.40;99.90
16128;DHT22;8168;49.036;7.690;2023-04-24T00:23:42;12.40;99.90
16128;DHT22;8168;49.036;7.690;2023-04-24T00:26:13;12.40;99.90
16128;DHT22;8168;49.036;7.690;2023-04-24T00:28:43;12.40;99.90
16128;DHT22;8168;49.036;7.690;2023-04-24T00:31:14;12.30;99.90
16128;DHT22;8168;49.036;7.690;2023-04-24T00:33:44;12.40;99.90
16128;DHT22;8168;49.036;7.690;2023-04-24T00:36:15;12.40;99.90
16128;DHT22;8168;49.036;7.690;2023-04-24T00:38:46;12.30;99.90
16128;DHT22;8168;49.036;7.690;2023-04-24T00:41:17;12.40;99.90
16128;DHT22;8168;49.036;7.690;2023-04-24T00:43:48;12.30;99.90
16128;DHT22;8168;49.036;7.690;2023-04-24T00:46:19;12.30;99.90
16128;DHT22;8168;49.036;7.690;2023-04-24T00:48:50;12.30;99.90
16128;DHT22;8168;49.036;7.690;2023-04-24T00:51:21;12.30;99.90
16128;DHT22;8168;49.036;7.690;2023-04-24T00:53:51;12.30;99.90
16128;DHT22;8168;49.036;7.690;2023-04-24T00:56:22;12.30;99.90
16128;DHT22;8168;49.036;7.690;2023-04-24T00:58:53;12.30;99.90
16128;DHT22;8168;49.036;7.690;2023-04-24T01:01:24;12.30;99.90
16128;DHT22;8168;49.036;7.690;2023-04-24T01:03:55;12.30;99.90
16128;DHT22;8168;49.036;7.690;2023-04-24T01:06:29;12.30;99.90
16128;DHT22;8168;49.036;7.690;2023-04-24T01:09:01;12.30;99.90
16128;DHT22;8168;49.036;7.690;2023-04-24T01:11:32;12.40;99.90
16128;DHT22;8168;49.036;7.690;2023-04-24T01:14:03;12.40;99.90
16128;DHT22;8168;49.036;7.690;2023-04-24T01:16:33;12.30;99.90
16128;DHT22;8168;49.036;7.690;2023-04-24T01:19:06;12.30;99.90
16128;DHT22;8168;49.036;7.690;2023-04-24T01:21:38;12.30;99.90
16128;DHT22;8168;49.036;7.690;2023-04-24T01:24:09;12.40;99.90
16128;DHT22;8168;49.036;7.690;2023-04-24T01:26:39;12.40;99.90
16128;DHT22;8168;49.036;7.690;2023-04-24T01:29:10;12.40;99.90
16128;DHT22;8168;49.036;7.690;2023-04-24T01:31:41;12.40;99.90
16128;DHT22;8168;49.036;7.690;2023-04-24T01:34:12;12.40;99.90
16128;DHT22;8168;49.036;7.690;2023-04-24T01:36:43;12.40;99.90
16128;DHT22;8168;49.036;7.690;2023-04-24T01:39:16;12.40;99.90
16128;DHT22;8168;49.036;7.690;2023-04-24T01:41:47;12.40;99.90
16128;DHT22;8168;49.036;7.690;2023-04-24T01:44:18;12.40;99.90
16128;DHT22;8168;49.036;7.690;2023-04-24T01:46:48;12.30;99.90
16128;DHT22;8168;49.036;7.690;2023-04-24T01:49:19;12.30;99.90
16128;DHT22;8168;49.036;7.690;2023-04-24T01:51:50;12.30;99.90
16128;DHT22;8168;49.036;7.690;2023-04-24T01:54:21;12.20;99.90
16128;DHT22;8168;49.036;7.690;2023-04-24T01:56:51;12.20;99.90
16128;DHT22;8168;49.036;7.690;2023-04-24T01:59:23;12.20;99.90
16128;DHT22;8168;49.036;7.690;2023-04-24T02:01:55;12.10;99.90
16128;DHT22;8168;49.036;7.690;2023-04-24T02:04:26;12.10;99.90
16128;DHT22;8168;49.036;7.690;2023-04-24T02:06:56;12.00;99.90
16128;DHT22;8168;49.036;7.690;2023-04-24T02:09:27;12.00;99.90
16128;DHT22;8168;49.036;7.690;2023-04-24T02:11:57;11.90;99.90
16128;DHT22;8168;49.036;7.690;2023-04-24T02:14:28;11.80;99.90
16128;DHT22;8168;49.036;7.690;2023-04-24T02:16:59;11.80;99.90
16128;DHT22;8168;49.036;7.690;2023-04-24T02:19:31;11.60;99.90
16128;DHT22;8168;49.036;7.690;2023-04-24T02:22:01;11.50;99.90
16128;DHT22;8168;49.036;7.690;2023-04-24T02:24:32;11.40;99.90
16128;DHT22;8168;49.036;7.690;2023-04-24T02:27:03;11.30;99.90
16128;DHT22;8168;49.036;7.690;2023-04-24T02:29:33;11.10;99.90
16128;DHT22;8168;49.036;7.690;2023-04-24T02:32:04;11.10;99.90
16128;DHT22;8168;49.036;7.690;2023-04-24T02:34:35;11.00;99.90
16128;DHT22;8168;49.036;7.690;2023-04-24T02:37:05;11.70;99.90
16128;DHT22;8168;49.036;7.690;2023-04-24T02:39:36;10.80;99.90
16128;DHT22;8168;49.036;7.690;2023-04-24T02:42:06;10.80;99.90
16128;DHT22;8168;49.036;7.690;2023-04-24T02:44:38;10.80;99.90
16128;DHT22;8168;49.036;7.690;2023-04-24T02:47:08;10.80;99.90
16128;DHT22;8168;49.036;7.690;2023-04-24T02:49:39;10.70;99.90
16128;DHT22;8168;49.036;7.690;2023-04-24T02:52:10;10.70;99.90
16128;DHT22;8168;49.036;7.690;2023-04-24T02:54:41;10.80;99.90
16128;DHT22;8168;49.036;7.690;2023-04-24T02:57:11;10.80;99.90
16128;DHT22;8168;49.036;7.690;2023-04-24T02:59:42;10.80;99.90
16128;DHT22;8168;49.036;7.690;2023-04-24T03:02:13;10.80;99.90
16128;DHT22;8168;49.036;7.690;2023-04-24T03:04:43;10.80;99.90
16128;DHT22;8168;49.036;7.690;2023-04-24T03:07:14;10.80;99.90
16128;DHT22;8168;49.036;7.690;2023-04-24T03:09:45;10.70;99.90
16128;DHT22;8168;49.036;7.690;2023-04-24T03:12:16;10.70;99.90
16128;DHT22;8168;49.036;7.690;2023-04-24T03:14:48;10.70;99.90
16128;DHT22;8168;49.036;7.690;2023-04-24T03:17:18;10.60;99.90
16128;DHT22;8168;49.036;7.690;2023-04-24T03:19:49;10.50;99.90
16128;DHT22;8168;49.036;7.690;2023-04-24T03:22:20;10.40;99.90
16128;DHT22;8168;49.036;7.690;2023-04-24T03:24:50;10.40;99.90
16128;DHT22;8168;49.036;7.690;2023-04-24T03:27:21;10.30;99.90
16128;DHT22;8168;49.036;7.690;2023-04-24T03:29:51;10.30;99.90
16128;DHT22;8168;49.036;7.690;2023-04-24T03:32:25;10.30;99.90
16128;DHT22;8168;49.036;7.690;2023-04-24T03:34:56;10.20;99.90
16128;DHT22;8168;49.036;7.690;2023-04-24T03:37:26;10.20;99.90
16128;DHT22;8168;49.036;7.690;2023-04-24T03:39:57;10.20;99.90
16128;DHT22;8168;49.036;7.690;2023-04-24T03:42:27;10.20;99.90
16128;DHT22;8168;49.036;7.690;2023-04-24T03:44:58;10.10;99.90
16128;DHT22;8168;49.036;7.690;2023-04-24T03:47:28;10.10;99.90
16128;DHT22;8168;49.036;7.690;2023-04-24T03:49:59;10.10;99.90
16128;DHT22;8168;49.036;7.690;2023-04-24T03:52:30;12.50;99.90
16128;DHT22;8168;49.036;7.690;2023-04-24T03:55:00;10.20;99.90
16128;DHT22;8168;49.036;7.690;2023-04-24T03:57:31;10.10;99.90
16128;DHT22;8168;49.036;7.690;2023-04-24T04:00:02;10.20;99.90
16128;DHT22;8168;49.036;7.690;2023-04-24T04:02:34;10.20;99.90
16128;DHT22;8168;49.036;7.690;2023-04-24T04:05:05;10.20;99.90
16128;DHT22;8168;49.036;7.690;2023-04-24T04:07:36;10.30;99.90
16128;DHT22;8168;49.036;7.690;2023-04-24T04:10:07;10.30;99.90
16128;DHT22;8168;49.036;7.690;2023-04-24T04:12:37;10.30;99.90
16128;DHT22;8168;49.036;7.690;2023-04-24T04:15:08;10.30;99.90
16128;DHT22;8168;49.036;7.690;2023-04-24T04:17:39;10.20;99.90
16128;DHT22;8168;49.036;7.690;2023-04-24T04:20:10;10.20;99.90
16128;DHT22;8168;49.036;7.690;2023-04-24T04:22:41;10.20;99.90
16128;DHT22;8168;49.036;7.690;2023-04-24T04:25:11;10.20;99.90
16128;DHT22;8168;49.036;7.690;2023-04-24T04:27:43;10.20;99.90
16128;DHT22;8168;49.036;7.690;2023-04-24T04:30:14;10.10;99.90
16128;DHT22;8168;49.036;7.690;2023-04-24T04:32:45;10.10;99.90
16128;DHT22;8168;49.036;7.690;2023-04-24T04:35:16;10.10;99.90
16128;DHT22;8168;49.036;7.690;2023-04-24T04:37:47;10.10;99.90
16128;DHT22;8168;49.036;7.690;2023-04-24T04:40:17;10.10;99.90
16128;DHT22;8168;49.036;7.690;2023-04-24T04:42:48;10.10;99.90
16128;DHT22;8168;49.036;7.690;2023-04-24T04:45:19;10.00;99.90
16128;DHT22;8168;49.036;7.690;2023-04-24T04:47:50;10.00;99.90
16128;DHT22;8168;49.036;7.690;2023-04-24T04:50:21;10.00;99.90
16128;DHT22;8168;49.036;7.690;2023-04-24T04:52:53;8.60;99.90
16128;DHT22;8168;49.036;7.690;2023-04-24T04:55:23;10.00;99.90
16128;DHT22;8168;49.036;7.690;2023-04-24T04:57:54;9.90;99.90
16128;DHT22;8168;49.036;7.690;2023-04-24T05:00:26;9.90;99.90
16128;DHT22;8168;49.036;7.690;2023-04-24T05:02:57;9.90;99.90
16128;DHT22;8168;49.036;7.690;2023-04-24T05:05:28;9.90;99.90
16128;DHT22;8168;49.036;7.690;2023-04-24T05:07:59;9.90;99.90
16128;DHT22;8168;49.036;7.690;2023-04-24T05:10:30;9.90;99.90
16128;DHT22;8168;49.036;7.690;2023-04-24T05:13:00;9.90;99.90
16128;DHT22;8168;49.036;7.690;2023-04-24T05:15:31;9.90;99.90
16128;DHT22;8168;49.036;7.690;2023-04-24T05:18:02;9.90;99.90
16128;DHT22;8168;49.036;7.690;2023-04-24T05:20:33;9.90;99.90
16128;DHT22;8168;49.036;7.690;2023-04-24T05:23:03;9.90;99.90
16128;DHT22;8168;49.036;7.690;2023-04-24T05:25:34;9.90;99.90
16128;DHT22;8168;49.036;7.690;2023-04-24T05:28:05;9.90;99.90
16128;DHT22;8168;49.036;7.690;2023-04-24T05:30:36;9.90;99.90
16128;DHT22;8168;49.036;7.690;2023-04-24T05:33:07;9.90;99.90
16128;DHT22;8168;49.036;7.690;2023-04-24T05:35:40;9.90;99.90
16128;DHT22;8168;49.036;7.690;2023-04-24T05:38:16;9.90;99.90
16128;DHT22;8168;49.036;7.690;2023-04-24T05:40:49;9.90;99.90
16128;DHT22;8168;49.036;7.690;2023-04-24T05:43:20;10.00;99.90
16128;DHT22;8168;49.036;7.690;2023-04-24T05:45:51;9.90;99.90
16128;DHT22;8168;49.036;7.690;2023-04-24T05:48:21;9.90;99.90
16128;DHT22;8168;49.036;7.690;2023-04-24T05:50:53;9.90;99.90
16128;DHT22;8168;49.036;7.690;2023-04-24T05:53:23;9.90;99.90
16128;DHT22;8168;49.036;7.690;2023-04-24T05:55:54;9.90;99.90
16128;DHT22;8168;49.036;7.690;2023-04-24T05:58:25;9.90;99.90
16128;DHT22;8168;49.036;7.690;2023-04-24T06:00:56;9.80;99.90
16128;DHT22;8168;49.036;7.690;2023-04-24T06:03:27;9.80;99.90
16128;DHT22;8168;49.036;7.690;2023-04-24T06:05:58;9.80;99.90
16128;DHT22;8168;49.036;7.690;2023-04-24T06:08:28;9.80;99.90
16128;DHT22;8168;49.036;7.690;2023-04-24T06:10:59;11.80;99.90
16128;DHT22;8168;49.036;7.690;2023-04-24T06:13:30;9.80;99.90
16128;DHT22;8168;49.036;7.690;2023-04-24T06:16:00;9.80;99.90
16128;DHT22;8168;49.036;7.690;2023-04-24T06:18:31;9.80;99.90
16128;DHT22;8168;49.036;7.690;2023-04-24T06:21:03;9.90;99.90
16128;DHT22;8168;49.036;7.690;2023-04-24T06:23:34;9.90;99.90
16128;DHT22;8168;49.036;7.690;2023-04-24T06:26:05;9.90;99.90
16128;DHT22;8168;49.036;7.690;2023-04-24T06:28:35;10.00;99.90
16128;DHT22;8168;49.036;7.690;2023-04-24T06:31:06;10.00;99.90
16128;DHT22;8168;49.036;7.690;2023-04-24T06:33:37;10.00;99.90
16128;DHT22;8168;49.036;7.690;2023-04-24T06:36:07;10.00;99.90
16128;DHT22;8168;49.036;7.690;2023-04-24T06:38:38;10.00;99.90
16128;DHT22;8168;49.036;7.690;2023-04-24T06:41:09;9.90;99.90
16128;DHT22;8168;49.036;7.690;2023-04-24T06:43:40;9.90;99.90
16128;DHT22;8168;49.036;7.690;2023-04-24T06:46:11;10.00;99.90
16128;DHT22;8168;49.036;7.690;2023-04-24T06:48:43;10.00;99.90
16128;DHT22;8168;49.036;7.690;2023-04-24T06:51:13;10.00;99.90
16128;DHT22;8168;49.036;7.690;2023-04-24T06:53:44;9.90;99.90
16128;DHT22;8168;49.036;7.690;2023-04-24T06:56:15;9.90;99.90
16128;DHT22;8168;49.036;7.690;2023-04-24T06:58:46;10.00;99.90
16128;DHT22;8168;49.036;7.690;2023-04-24T07:01:17;10.00;99.90
16128;DHT22;8168;49.036;7.690;2023-04-24T07:03:47;10.00;99.90
16128;DHT22;8168;49.036;7.690;2023-04-24T07:06:18;10.00;99.90
16128;DHT22;8168;49.036;7.690;2023-04-24T07:08:51;10.00;99.90
16128;DHT22;8168;49.036;7.690;2023-04-24T07:11:22;10.00;99.90
16128;DHT22;8168;49.036;7.690;2023-04-24T07:13:52;10.00;99.90
16128;DHT22;8168;49.036;7.690;2023-04-24T07:16:23;9.90;99.90
16128;DHT22;8168;49.036;7.690;2023-04-24T07:18:54;9.90;99.90
16128;DHT22;8168;49.036;7.690;2023-04-24T07:21:24;10.00;99.90
16128;DHT22;8168;49.036;7.690;2023-04-24T07:23:55;10.00;99.90
16128;DHT22;8168;49.036;7.690;2023-04-24T07:26:28;10.00;99.90
16128;DHT22;8168;49.036;7.690;2023-04-24T07:28:59;10.00;99.90
16128;DHT22;8168;49.036;7.690;2023-04-24T07:31:29;9.90;99.90
16128;DHT22;8168;49.036;7.690;2023-04-24T07:34:01;10.00;99.90
16128;DHT22;8168;49.036;7.690;2023-04-24T07:36:31;10.00;99.90
16128;DHT22;8168;49.036;7.690;2023-04-24T07:39:02;10.00;99.90
16128;DHT22;8168;49.036;7.690;2023-04-24T07:41:33;10.00;99.90
16128;DHT22;8168;49.036;7.690;2023-04-24T07:44:04;10.00;99.90
16128;DHT22;8168;49.036;7.690;2023-04-24T07:46:35;10.00;99.90
16128;DHT22;8168;49.036;7.690;2023-04-24T07:49:06;10.10;99.90
16128;DHT22;8168;49.036;7.690;2023-04-24T07:51:36;10.20;99.90
16128;DHT22;8168;49.036;7.690;2023-04-24T07:54:08;10.20;99.90
16128;DHT22;8168;49.036;7.690;2023-04-24T07:56:40;10.30;99.90
16128;DHT22;8168;49.036;7.690;2023-04-24T07:59:12;10.30;99.90
16128;DHT22;8168;49.036;7.690;2023-04-24T08:01:42;10.30;99.90
16128;DHT22;8168;49.036;7.690;2023-04-24T08:04:14;10.30;99.90
16128;DHT22;8168;49.036;7.690;2023-04-24T08:06:44;10.20;99.90
16128;DHT22;8168;49.036;7.690;2023-04-24T08:09:15;10.20;99.90
16128;DHT22;8168;49.036;7.690;2023-04-24T08:11:45;10.20;99.90
16128;DHT22;8168;49.036;7.690;2023-04-24T08:14:16;10.20;99.90
16128;DHT22;8168;49.036;7.690;2023-04-24T08:16:47;10.20;99.90
16128;DHT22;8168;49.036;7.690;2023-04-24T08:19:17;10.30;99.90
16128;DHT22;8168;49.036;7.690;2023-04-24T08:21:48;10.30;99.90
16128;DHT22;8168;49.036;7.690;2023-04-24T08:24:18;10.30;99.90
16128;DHT22;8168;49.036;7.690;2023-04-24T08:26:49;10.40;99.90
16128;DHT22;8168;49.036;7.690;2023-04-24T08:29:21;10.40;99.90
16128;DHT22;8168;49.036;7.690;2023-04-24T08:31:52;10.40;99.90
16128;DHT22;8168;49.036;7.690;2023-04-24T08:34:24;10.40;99.90
16128;DHT22;8168;49.036;7.690;2023-04-24T08:36:55;10.50;99.90
16128;DHT22;8168;49.036;7.690;2023-04-24T08:39:26;10.50;99.90
16128;DHT22;8168;49.036;7.690;2023-04-24T08:41:56;10.50;99.90
16128;DHT22;8168;49.036;7.690;2023-04-24T08:44:27;10.50;99.90
16128;DHT22;8168;49.036;7.690;2023-04-24T08:46:58;10.40;99.90
16128;DHT22;8168;49.036;7.690;2023-04-24T08:49:29;10.30;99.90
16128;DHT22;8168;49.036;7.690;2023-04-24T08:52:02;10.40;99.90
16128;DHT22;8168;49.036;7.690;2023-04-24T08:54:36;10.30;99.90
16128;DHT22;8168;49.036;7.690;2023-04-24T08:57:07;10.30;99.90
16128;DHT22;8168;49.036;7.690;2023-04-24T08:59:39;10.30;99.90
16128;DHT22;8168;49.036;7.690;2023-04-24T09:02:11;10.40;99.90
16128;DHT22;8168;49.036;7.690;2023-04-24T09:04:43;10.50;99.90
16128;DHT22;8168;49.036;7.690;2023-04-24T09:07:16;10.60;99.90
16128;DHT22;8168;49.036;7.690;2023-04-24T09:09:50;10.60;99.90
16128;DHT22;8168;49.036;7.690;2023-04-24T09:12:21;10.70;99.90
16128;DHT22;8168;49.036;7.690;2023-04-24T09:14:52;10.80;99.90
16128;DHT22;8168;49.036;7.690;2023-04-24T09:17:24;10.90;99.90
16128;DHT22;8168;49.036;7.690;2023-04-24T09:19:57;10.80;99.90
16128;DHT22;8168;49.036;7.690;2023-04-24T09:22:30;10.80;99.90
16128;DHT22;8168;49.036;7.690;2023-04-24T09:25:06;10.80;99.90
16128;DHT22;8168;49.036;7.690;2023-04-24T09:27:44;10.70;99.90
16128;DHT22;8168;49.036;7.690;2023-04-24T09:30:21;10.70;99.90
16128;DHT22;8168;49.036;7.690;2023-04-24T09:33:10;10.60;99.90
16128;DHT22;8168;49.036;7.690;2023-04-24T09:35:51;10.60;99.90
16128;DHT22;8168;49.036;7.690;2023-04-24T09:38:35;10.40;99.90
16128;DHT22;8168;49.036;7.690;2023-04-24T09:41:08;10.40;99.90
16128;DHT22;8168;49.036;7.690;2023-04-24T09:43:38;10.40;99.90
16128;DHT22;8168;49.036;7.690;2023-04-24T09:46:09;10.30;99.90
16128;DHT22;8168;49.036;7.690;2023-04-24T09:48:40;10.30;99.90
16128;DHT22;8168;49.036;7.690;2023-04-24T09:51:12;10.30;99.90
16128;DHT22;8168;49.036;7.690;2023-04-24T09:53:46;10.30;99.90
16128;DHT22;8168;49.036;7.690;2023-04-24T09:56:17;10.30;99.90
16128;DHT22;8168;49.036;7.690;2023-04-24T09:58:48;10.40;99.90
16128;DHT22;8168;49.036;7.690;2023-04-24T10:01:31;10.40;99.90
16128;DHT22;8168;49.036;7.690;2023-04-24T10:04:02;10.40;99.90
16128;DHT22;8168;49.036;7.690;2023-04-24T10:06:34;10.40;99.90
16128;DHT22;8168;49.036;7.690;2023-04-24T10:09:05;10.40;99.90
16128;DHT22;8168;49.036;7.690;2023-04-24T10:11:35;10.50;99.90
16128;DHT22;8168;49.036;7.690;2023-04-24T10:14:07;10.40;99.90
16128;DHT22;8168;49.036;7.690;2023-04-24T10:16:40;10.50;99.90
16128;DHT22;8168;49.036;7.690;2023-04-24T10:19:11;10.50;99.90
16128;DHT22;8168;49.036;7.690;2023-04-24T10:21:44;10.60;99.90
16128;DHT22;8168;49.036;7.690;2023-04-24T10:24:18;10.50;99.90
16128;DHT22;8168;49.036;7.690;2023-04-24T10:26:50;10.50;99.90
16128;DHT22;8168;49.036;7.690;2023-04-24T10:29:21;10.50;99.90
16128;DHT22;8168;49.036;7.690;2023-04-24T10:31:52;10.50;99.90
16128;DHT22;8168;49.036;7.690;2023-04-24T10:34:23;10.50;99.90
16128;DHT22;8168;49.036;7.690;2023-04-24T10:36:55;10.50;99.90
16128;DHT22;8168;49.036;7.690;2023-04-24T10:39:26;10.50;99.90
16128;DHT22;8168;49.036;7.690;2023-04-24T10:41:57;10.60;99.90
16128;DHT22;8168;49.036;7.690;2023-04-24T10:44:36;10.50;99.90
16128;DHT22;8168;49.036;7.690;2023-04-24T10:47:12;10.50;99.90
16128;DHT22;8168;49.036;7.690;2023-04-24T10:49:43;10.50;99.90
16128;DHT22;8168;49.036;7.690;2023-04-24T10:52:14;10.50;99.90
16128;DHT22;8168;49.036;7.690;2023-04-24T10:54:46;10.50;99.90
16128;DHT22;8168;49.036;7.690;2023-04-24T11:00:20;10.60;99.90
16128;DHT22;8168;49.036;7.690;2023-04-24T11:02:52;10.60;99.90
16128;DHT22;8168;49.036;7.690;2023-04-24T11:08:44;10.60;99.90
16128;DHT22;8168;49.036;7.690;2023-04-24T11:11:16;10.70;99.90
16128;DHT22;8168;49.036;7.690;2023-04-24T11:16:29;10.60;99.90
16128;DHT22;8168;49.036;7.690;2023-04-24T11:22:05;10.70;99.90
16128;DHT22;8168;49.036;7.690;2023-04-24T11:27:18;10.80;99.90
16128;DHT22;8168;49.036;7.690;2023-04-24T11:32:27;10.80;99.90
16128;DHT22;8168;49.036;7.690;2023-04-24T11:35:00;10.90;99.90
16128;DHT22;8168;49.036;7.690;2023-04-24T11:37:35;10.90;99.90
16128;DHT22;8168;49.036;7.690;2023-04-24T11:40:08;11.00;99.90
16128;DHT22;8168;49.036;7.690;2023-04-24T11:42:41;11.00;99.90
16128;DHT22;8168;49.036;7.690;2023-04-24T11:45:14;11.10;99.90
16128;DHT22;8168;49.036;7.690;2023-04-24T11:47:45;11.20;99.90
16128;DHT22;8168;49.036;7.690;2023-04-24T11:50:17;11.30;99.90
16128;DHT22;8168;49.036;7.690;2023-04-24T11:52:49;11.40;99.90
16128;DHT22;8168;49.036;7.690;2023-04-24T11:57:53;11.50;99.90
16128;DHT22;8168;49.036;7.690;2023-04-24T12:00:29;11.50;99.90
16128;DHT22;8168;49.036;7.690;2023-04-24T12:03:07;11.60;99.90
16128;DHT22;8168;49.036;7.690;2023-04-24T12:05:39;11.60;99.90
16128;DHT22;8168;49.036;7.690;2023-04-24T12:08:10;11.70;99.90
16128;DHT22;8168;49.036;7.690;2023-04-24T12:10:40;11.80;99.90
16128;DHT22;8168;49.036;7.690;2023-04-24T12:13:11;11.90;99.90
16128;DHT22;8168;49.036;7.690;2023-04-24T12:15:42;12.00;99.90
16128;DHT22;8168;49.036;7.690;2023-04-24T12:18:12;12.10;99.90
16128;DHT22;8168;49.036;7.690;2023-04-24T12:20:44;12.20;99.90
16128;DHT22;8168;49.036;7.690;2023-04-24T12:23:14;12.30;99.90
16128;DHT22;8168;49.036;7.690;2023-04-24T12:25:45;12.30;99.90
16128;DHT22;8168;49.036;7.690;2023-04-24T12:28:16;12.40;99.90
16128;DHT22;8168;49.036;7.690;2023-04-24T12:30:49;12.40;99.90
16128;DHT22;8168;49.036;7.690;2023-04-24T12:33:21;12.50;99.90
16128;DHT22;8168;49.036;7.690;2023-04-24T12:35:52;12.50;99.90
16128;DHT22;8168;49.036;7.690;2023-04-24T12:38:27;12.50;99.90
16128;DHT22;8168;49.036;7.690;2023-04-24T12:41:11;12.50;99.90
16128;DHT22;8168;49.036;7.690;2023-04-24T12:43:54;12.30;99.90
16128;DHT22;8168;49.036;7.690;2023-04-24T12:46:25;12.30;99.90
16128;DHT22;8168;49.036;7.690;2023-04-24T12:48:56;12.30;99.90
16128;DHT22;8168;49.036;7.690;2023-04-24T12:51:28;12.20;99.90
16128;DHT22;8168;49.036;7.690;2023-04-24T12:53:59;12.30;99.90
16128;DHT22;8168;49.036;7.690;2023-04-24T12:56:29;12.30;99.90
16128;DHT22;8168;49.036;7.690;2023-04-24T12:59:01;12.30;99.90
16128;DHT22;8168;49.036;7.690;2023-04-24T13:01:31;12.40;99.90
16128;DHT22;8168;49.036;7.690;2023-04-24T13:04:02;12.40;99.90
16128;DHT22;8168;49.036;7.690;2023-04-24T13:06:32;12.30;99.90
16128;DHT22;8168;49.036;7.690;2023-04-24T13:09:03;12.30;99.90
16128;DHT22;8168;49.036;7.690;2023-04-24T13:11:34;12.30;99.90
16128;DHT22;8168;49.036;7.690;2023-04-24T13:14:05;12.30;99.90
16128;DHT22;8168;49.036;7.690;2023-04-24T13:16:36;12.30;99.90
16128;DHT22;8168;49.036;7.690;2023-04-24T13:19:06;12.20;99.90
16128;DHT22;8168;49.036;7.690;2023-04-24T13:21:37;12.30;99.90
16128;DHT22;8168;49.036;7.690;2023-04-24T13:24:07;12.40;99.90
16128;DHT22;8168;49.036;7.690;2023-04-24T13:26:39;12.50;99.90
16128;DHT22;8168;49.036;7.690;2023-04-24T13:29:09;12.50;99.90
16128;DHT22;8168;49.036;7.690;2023-04-24T13:31:40;12.60;99.90
16128;DHT22;8168;49.036;7.690;2023-04-24T13:34:11;12.70;99.90
16128;DHT22;8168;49.036;7.690;2023-04-24T13:36:42;12.80;99.90
16128;DHT22;8168;49.036;7.690;2023-04-24T13:39:12;12.80;99.90
16128;DHT22;8168;49.036;7.690;2023-04-24T13:41:43;12.80;99.90
16128;DHT22;8168;49.036;7.690;2023-04-24T13:44:15;12.70;99.90
16128;DHT22;8168;49.036;7.690;2023-04-24T13:46:47;12.80;99.90
16128;DHT22;8168;49.036;7.690;2023-04-24T13:49:18;12.80;99.90
16128;DHT22;8168;49.036;7.690;2023-04-24T13:51:49;12.90;99.90
16128;DHT22;8168;49.036;7.690;2023-04-24T13:54:20;12.90;99.90
16128;DHT22;8168;49.036;7.690;2023-04-24T13:56:51;12.90;99.90
16128;DHT22;8168;49.036;7.690;2023-04-24T13:59:22;13.00;99.90
16128;DHT22;8168;49.036;7.690;2023-04-24T14:01:52;13.00;99.90
16128;DHT22;8168;49.036;7.690;2023-04-24T14:04:23;13.00;99.90
16128;DHT22;8168;49.036;7.690;2023-04-24T14:06:54;13.00;99.90
16128;DHT22;8168;49.036;7.690;2023-04-24T14:09:24;12.90;99.90
16128;DHT22;8168;49.036;7.690;2023-04-24T14:11:55;12.90;99.90
16128;DHT22;8168;49.036;7.690;2023-04-24T14:14:26;12.90;99.90
16128;DHT22;8168;49.036;7.690;2023-04-24T14:16:57;12.90;99.90
16128;DHT22;8168;49.036;7.690;2023-04-24T14:19:27;12.80;99.90
16128;DHT22;8168;49.036;7.690;2023-04-24T14:21:58;12.80;99.90
16128;DHT22;8168;49.036;7.690;2023-04-24T14:24:29;12.90;99.90
16128;DHT22;8168;49.036;7.690;2023-04-24T14:26:59;13.00;99.90
16128;DHT22;8168;49.036;7.690;2023-04-24T14:29:30;13.00;99.90
16128;DHT22;8168;49.036;7.690;2023-04-24T14:32:01;13.00;99.90
16128;DHT22;8168;49.036;7.690;2023-04-24T14:34:35;13.00;99.90
16128;DHT22;8168;49.036;7.690;2023-04-24T14:37:05;12.90;99.90
16128;DHT22;8168;49.036;7.690;2023-04-24T14:39:36;12.70;99.90
16128;DHT22;8168;49.036;7.690;2023-04-24T14:42:06;12.70;99.90
16128;DHT22;8168;49.036;7.690;2023-04-24T14:44:37;12.60;99.90
16128;DHT22;8168;49.036;7.690;2023-04-24T14:47:07;12.60;99.90
16128;DHT22;8168;49.036;7.690;2023-04-24T14:49:38;12.60;99.90
16128;DHT22;8168;49.036;7.690;2023-04-24T14:52:09;12.70;99.90
16128;DHT22;8168;49.036;7.690;2023-04-24T14:54:40;12.70;99.90
16128;DHT22;8168;49.036;7.690;2023-04-24T14:57:11;12.70;99.90
16128;DHT22;8168;49.036;7.690;2023-04-24T14:59:41;12.70;99.90
16128;DHT22;8168;49.036;7.690;2023-04-24T15:02:12;12.70;99.90
16128;DHT22;8168;49.036;7.690;2023-04-24T15:04:43;12.80;99.90
16128;DHT22;8168;49.036;7.690;2023-04-24T15:07:13;12.80;99.90
16128;DHT22;8168;49.036;7.690;2023-04-24T15:09:44;12.80;99.90
16128;DHT22;8168;49.036;7.690;2023-04-24T15:12:14;12.80;99.90
16128;DHT22;8168;49.036;7.690;2023-04-24T15:14:45;12.80;99.90
16128;DHT22;8168;49.036;7.690;2023-04-24T15:17:16;12.80;99.90
16128;DHT22;8168;49.036;7.690;2023-04-24T15:19:46;12.90;99.90
16128;DHT22;8168;49.036;7.690;2023-04-24T15:22:17;12.80;99.90
16128;DHT22;8168;49.036;7.690;2023-04-24T15:24:48;12.90;99.90
16128;DHT22;8168;49.036;7.690;2023-04-24T15:27:18;12.90;99.90
16128;DHT22;8168;49.036;7.690;2023-04-24T15:29:49;12.80;99.90
16128;DHT22;8168;49.036;7.690;2023-04-24T15:32:19;12.70;99.90
16128;DHT22;8168;49.036;7.690;2023-04-24T15:34:50;12.60;99.90
16128;DHT22;8168;49.036;7.690;2023-04-24T15:37:21;12.60;99.90
16128;DHT22;8168;49.036;7.690;2023-04-24T15:39:51;12.50;99.90
16128;DHT22;8168;49.036;7.690;2023-04-24T15:42:22;12.50;99.90
16128;DHT22;8168;49.036;7.690;2023-04-24T15:44:52;12.40;99.90
16128;DHT22;8168;49.036;7.690;2023-04-24T15:47:24;12.40;99.90
16128;DHT22;8168;49.036;7.690;2023-04-24T15:49:57;12.20;99.90
16128;DHT22;8168;49.036;7.690;2023-04-24T15:52:27;12.00;99.90
16128;DHT22;8168;49.036;7.690;2023-04-24T15:54:58;11.80;99.90
16128;DHT22;8168;49.036;7.690;2023-04-24T15:57:28;11.80;99.90
16128;DHT22;8168;49.036;7.690;2023-04-24T16:00:00;11.70;99.90
16128;DHT22;8168;49.036;7.690;2023-04-24T16:02:30;11.60;99.90
16128;DHT22;8168;49.036;7.690;2023-04-24T16:05:01;11.60;99.90
16128;DHT22;8168;49.036;7.690;2023-04-24T16:07:33;11.60;99.90
16128;DHT22;8168;49.036;7.690;2023-04-24T16:10:04;11.60;99.90
16128;DHT22;8168;49.036;7.690;2023-04-24T16:12:34;11.50;99.90
16128;DHT22;8168;49.036;7.690;2023-04-24T16:15:05;11.40;99.90
16128;DHT22;8168;49.036;7.690;2023-04-24T16:17:36;11.50;99.90
16128;DHT22;8168;49.036;7.690;2023-04-24T16:20:07;11.50;99.90
16128;DHT22;8168;49.036;7.690;2023-04-24T16:22:38;11.50;99.90
16128;DHT22;8168;49.036;7.690;2023-04-24T16:25:10;11.50;99.90
16128;DHT22;8168;49.036;7.690;2023-04-24T16:27:40;11.50;99.90
16128;DHT22;8168;49.036;7.690;2023-04-24T16:30:11;11.50;99.90
16128;DHT22;8168;49.036;7.690;2023-04-24T16:32:42;11.50;99.90